Time;durP1;ratioP1;P1;durP2;ratioP2;P2;SDS_P1;SDS_P2;PMS_P1;PMS_P2;Temp;Humidity;BMP_temperature;BMP_pressure;BME280_temperature;BME280_humidity;BME280_pressure;Samples;Min_cycle;Max_cycle;Signal;HPM_P1;HPM_P2
2022/06/12 00:02:10;;;;;;;3.85;3.17;;;20.50;55.60;;;20.92;47.68;98184.59;5043267;28;20056;-49
2022/06/12 00:04:38;;;;;;;5.28;3.35;;;20.50;55.60;;;20.91;47.53;98183.78;5042956;28;20072;-47
2022/06/12 00:07:06;;;;;;;8.23;3.63;;;20.60;55.40;;;20.93;47.53;98184.41;5043647;28;20108;-50
2022/06/12 00:09:33;;;;;;;3.70;3.40;;;20.60;55.40;;;20.92;47.64;98190.88;5043195;28;20045;-49
2022/06/12 00:12:01;;;;;;;3.75;3.28;;;20.60;55.40;;;20.89;47.60;98179.66;5044089;28;20057;-46
2022/06/12 00:14:30;;;;;;;6.78;4.05;;;20.50;55.70;;;20.89;47.70;98180.47;5043304;28;20050;-50
2022/06/12 00:16:58;;;;;;;6.00;3.63;;;20.60;55.60;;;20.88;47.83;98181.53;5043486;28;20055;-52
2022/06/12 00:19:26;;;;;;;5.22;3.30;;;20.50;55.60;;;20.88;47.91;98177.97;5041727;28;20057;-49
2022/06/12 00:21:54;;;;;;;4.40;3.15;;;20.60;55.70;;;20.86;47.94;98175.50;5043231;28;20332;-51
2022/06/12 00:24:22;;;;;;;3.05;2.70;;;20.50;55.80;;;20.84;48.18;98180.28;5043182;28;20336;-48
2022/06/12 00:26:54;;;;;;;6.18;3.60;;;20.50;55.80;;;20.81;48.06;98176.13;5043104;28;20056;-48
2022/06/12 00:29:30;;;;;;;5.35;3.40;;;20.50;56.30;;;20.78;48.46;98181.13;5041725;28;20049;-49
2022/06/12 00:32:13;;;;;;;4.85;3.50;;;20.40;56.60;;;20.73;48.25;98183.66;5043196;28;20076;-50
2022/06/12 00:34:48;;;;;;;3.93;2.90;;;20.40;56.70;;;20.72;48.21;98179.28;5043093;28;20045;-47
2022/06/12 00:37:19;;;;;;;4.40;3.42;;;20.40;56.70;;;20.75;48.24;98179.69;5043128;28;20052;-50
2022/06/12 00:39:49;;;;;;;4.72;3.88;;;20.50;56.40;;;20.77;48.56;98179.47;5042857;28;20054;-50
2022/06/12 00:42:33;;;;;;;4.07;3.15;;;20.50;56.40;;;20.74;48.60;98179.91;5043006;28;20049;-48
2022/06/12 00:45:29;;;;;;;3.45;3.15;;;20.50;56.90;;;20.71;48.19;98175.75;5042615;28;20047;-50
2022/06/12 00:48:01;;;;;;;5.95;3.30;;;20.40;56.50;;;20.67;48.39;98173.69;5042696;28;20059;-48
2022/06/12 00:50:30;;;;;;;6.07;3.70;;;20.40;56.70;;;20.63;48.80;98181.41;5042950;28;20336;-49
2022/06/12 00:53:00;;;;;;;4.15;3.75;;;20.30;56.90;;;20.60;48.75;98181.81;5041145;28;20243;-48
2022/06/12 00:55:51;;;;;;;4.20;3.53;;;20.20;57.00;;;20.59;48.68;98177.44;5042640;28;20041;-47
2022/06/12 00:58:23;;;;;;;6.20;3.90;;;20.30;57.60;;;20.58;48.81;98178.47;5041462;28;20049;-46
2022/06/12 01:00:52;;;;;;;7.80;3.50;;;20.20;57.10;;;20.55;49.08;98181.59;5041547;28;20072;-47
2022/06/12 01:03:21;;;;;;;6.60;3.80;;;20.20;57.10;;;20.54;49.03;98188.06;5025409;28;20057;-48
2022/06/12 01:08:36;;;;;;;5.30;3.70;;;20.30;57.40;;;20.53;49.02;98189.94;5042985;28;20053;-47
2022/06/12 01:11:10;;;;;;;5.25;3.60;;;20.20;57.30;;;20.51;49.35;98183.06;5042839;28;20059;-53
2022/06/12 01:13:44;;;;;;;6.40;3.58;;;20.20;57.60;;;20.50;49.11;98178.69;5042128;28;20049;-47
2022/06/12 01:16:18;;;;;;;5.15;4.47;;;20.20;57.70;;;20.49;49.40;98180.59;5042122;28;20254;-50
2022/06/12 01:18:52;;;;;;;5.38;3.83;;;20.20;57.70;;;20.50;49.03;98174.13;5040988;28;20049;-49
2022/06/12 01:22:20;;;;;;;5.15;4.07;;;20.20;57.60;;;20.51;48.98;98183.06;5041397;28;20045;-47
2022/06/12 01:25:42;;;;;;;5.95;3.35;;;20.20;58.20;;;20.44;49.03;98177.66;5040123;28;20056;-48
2022/06/12 01:28:46;;;;;;;6.82;4.72;;;20.10;58.70;;;20.41;49.43;98178.09;5012070;28;20355;-47
2022/06/12 01:31:30;;;;;;;5.07;4.35;;;20.00;58.80;;;20.36;49.28;98176.03;5042264;28;20051;-49
2022/06/12 01:34:52;;;;;;;5.05;4.05;;;20.00;59.00;;;20.26;49.75;98170.22;5040799;28;20224;-47
2022/06/12 01:37:35;;;;;;;3.75;3.10;;;19.90;59.30;;;20.24;49.74;98166.91;5041287;28;20045;-49
2022/06/12 01:40:20;;;;;;;6.03;3.67;;;19.80;58.70;;;20.18;49.78;98167.72;5042038;28;20213;-49
2022/06/12 01:43:15;;;;;;;4.75;3.67;;;19.80;59.10;;;20.18;50.22;98175.81;5042229;28;20049;-48
2022/06/12 01:46:05;;;;;;;7.03;4.28;;;19.70;59.20;;;20.14;49.73;98170.03;5041902;28;20343;-49
2022/06/12 01:48:45;;;;;;;4.47;3.63;;;19.80;59.40;;;20.13;49.84;98165.66;5041619;28;20052;-52
2022/06/12 01:51:54;;;;;;;5.75;3.45;;;19.70;58.60;;;20.10;49.92;98166.06;5042132;28;20049;-52
2022/06/12 01:54:45;;;;;;;4.35;3.95;;;19.80;59.30;;;20.10;50.06;98157.13;5040528;28;20251;-49
2022/06/12 01:57:32;;;;;;;5.25;4.10;;;19.70;59.20;;;20.06;50.12;98160.28;5040890;28;20244;-50
2022/06/12 02:00:22;;;;;;;8.13;4.35;;;19.70;59.80;;;20.02;50.17;98150.91;5042026;28;20057;-49
2022/06/12 02:03:20;;;;;;;5.55;4.45;;;19.70;60.50;;;19.99;50.42;98155.91;5040841;28;20052;-50
2022/06/12 02:06:13;;;;;;;5.28;4.15;;;19.60;60.30;;;19.97;50.41;98155.28;5040618;28;20360;-48
2022/06/12 02:09:19;;;;;;;4.97;4.47;;;19.60;60.00;;;19.95;50.68;98154.66;5040687;28;20244;-49
2022/06/12 02:15:06;;;;;;;5.97;4.50;;;19.50;60.10;;;19.81;51.61;98160.09;5040828;28;20150;-48
2022/06/12 02:17:51;;;;;;;7.55;4.70;;;19.40;61.20;;;19.70;51.02;98163.38;5041409;28;20056;-50
2022/06/12 02:20:25;;;;;;;6.45;4.60;;;19.30;61.20;;;19.66;51.19;98159.41;5040785;28;20048;-50
2022/06/12 02:22:54;;;;;;;;;;;19.20;61.50;;;19.60;51.02;98163.78;5041141;28;20045;-48
2022/06/12 02:25:33;;;;;;;7.43;4.47;;;19.20;63.20;;;19.60;51.33;98162.91;5040472;28;19917;-53
2022/06/12 02:28:13;;;;;;;6.28;4.30;;;19.10;62.50;;;19.56;51.33;98153.56;5045269;28;20057;-48
2022/06/12 02:30:48;;;;;;;5.47;4.30;;;19.10;62.50;;;19.54;51.54;98161.91;5044190;28;20063;-49
2022/06/12 02:33:24;;;;;;;5.22;4.72;;;19.10;62.10;;;19.53;51.68;98165.63;5044489;28;20050;-49
2022/06/12 02:36:02;;;;;;;8.15;5.25;;;19.10;62.20;;;19.52;51.77;98160.44;5044339;28;20049;-50
2022/06/12 02:38:41;;;;;;;5.82;4.47;;;19.10;62.70;;;19.47;52.01;98163.75;5044156;28;20045;-49
2022/06/12 02:41:29;;;;;;;5.57;4.50;;;19.10;62.70;;;19.38;52.13;98163.09;5044109;28;20259;-49
2022/06/12 02:44:04;;;;;;;4.70;4.22;;;18.90;63.60;;;19.35;52.12;98157.28;5044574;28;20053;-49
2022/06/12 02:47:02;;;;;;;5.57;4.38;;;18.90;62.90;;;19.31;52.20;98159.59;5044200;28;20045;-49
2022/06/12 02:49:31;;;;;;;6.75;5.25;;;18.90;64.00;;;19.26;52.30;98160.19;5044829;28;20046;-47
2022/06/12 02:52:28;;;;;;;5.70;4.15;;;18.80;63.00;;;19.18;52.79;98154.16;5045152;28;20045;-48
2022/06/12 02:55:14;;;;;;;7.50;5.03;;;18.70;64.50;;;19.13;52.72;98151.22;5044703;28;20332;-47
2022/06/12 02:58:04;;;;;;;7.00;4.20;;;18.60;64.60;;;19.12;52.71;98153.09;5043798;28;20041;-49
2022/06/12 03:00:43;;;;;;;6.10;4.72;;;18.60;65.10;;;19.10;52.90;98151.66;5044789;28;20056;-47
2022/06/12 03:03:48;;;;;;;4.80;4.03;;;18.60;65.10;;;19.05;52.79;98144.16;5044865;28;20217;-48
2022/06/12 03:06:17;;;;;;;5.05;3.72;;;18.60;65.40;;;19.04;52.83;98159.50;5045417;28;20059;-49
2022/06/12 03:08:49;;;;;;;7.32;4.10;;;18.60;64.00;;;19.01;52.85;98149.09;5044587;28;20034;-48
2022/06/12 03:11:26;;;;;;;6.07;4.30;;;18.60;64.10;;;19.02;52.92;98144.56;5044681;28;20063;-46
2022/06/12 03:13:57;;;;;;;5.10;4.30;;;18.60;63.90;;;19.01;52.92;98156.38;5044683;28;20052;-50
2022/06/12 03:16:32;;;;;;;5.53;3.95;;;18.60;64.40;;;18.98;52.78;98154.06;5044644;28;20051;-51
2022/06/12 03:19:06;;;;;;;4.60;4.00;;;18.60;64.10;;;18.93;52.98;98154.69;5044359;28;20041;-48
2022/06/12 03:22:00;;;;;;;4.35;3.95;;;18.50;64.10;;;18.86;53.05;98148.44;5043502;28;20053;-49
2022/06/12 03:24:48;;;;;;;5.18;3.92;;;18.40;64.50;;;18.80;53.16;98152.78;5043603;28;20059;-48
2022/06/12 03:27:49;;;;;;;5.25;4.18;;;18.40;65.00;;;18.81;53.24;98150.94;5044411;28;20041;-51
2022/06/12 03:30:47;;;;;;;4.63;4.20;;;18.40;64.70;;;18.79;53.57;98152.97;5044147;28;20076;-49
2022/06/12 03:33:38;;;;;;;7.15;4.10;;;18.40;64.80;;;18.77;53.34;98152.34;5043480;28;20059;-52
2022/06/12 03:36:41;;;;;;;5.30;3.70;;;18.40;65.80;;;18.75;53.81;98152.53;5043156;28;20053;-48
2022/06/12 03:39:18;;;;;;;6.72;4.78;;;18.40;66.80;;;18.75;53.72;98157.09;5043152;28;20045;-48
2022/06/12 03:42:10;;;;;;;6.82;4.65;;;18.40;65.70;;;18.74;54.10;98156.25;5044068;28;20067;-49
2022/06/12 03:44:57;;;;;;;5.95;5.30;;;18.30;66.10;;;18.72;54.02;98158.31;5043142;28;20050;-47
2022/06/12 03:47:45;;;;;;;8.77;5.57;;;18.30;66.30;;;18.69;54.11;98162.25;5043872;28;20229;-47
2022/06/12 03:50:56;;;;;;;5.13;4.53;;;18.30;67.30;;;18.69;54.21;98164.94;5043036;28;20359;-52
2022/06/12 03:53:50;;;;;;;5.53;4.57;;;18.20;66.70;;;18.65;54.42;98161.00;5041997;28;20340;-47
2022/06/12 03:59:44;;;;;;;5.88;4.30;;;18.20;68.00;;;18.60;54.81;98160.75;5042666;28;20355;-52
2022/06/12 04:02:18;;;;;;;6.45;4.30;;;18.10;67.70;;;18.61;54.88;98169.66;5044407;28;20235;-46
2022/06/12 04:04:48;;;;;;;7.47;4.60;;;18.20;67.70;;;18.62;54.89;98164.06;5044368;28;20064;-52
2022/06/12 04:07:20;;;;;;;5.40;4.00;;;18.20;67.20;;;18.63;54.96;98168.44;5042610;28;20052;-51
2022/06/12 04:09:52;;;;;;;4.72;4.10;;;18.30;67.30;;;18.65;55.08;98168.22;5043535;28;20041;-49
2022/06/12 04:12:28;;;;;;;4.70;4.03;;;18.30;67.30;;;18.67;54.94;98174.28;5043484;28;20045;-46
2022/06/12 04:15:14;;;;;;;7.68;4.43;;;18.30;67.50;;;18.69;54.94;98173.03;5042439;28;20050;-51
2022/06/12 04:17:43;;;;;;;5.68;5.00;;;18.30;67.00;;;18.69;55.13;98167.66;5043415;28;20059;-49
2022/06/12 04:20:27;;;;;;;4.28;3.60;;;18.40;67.00;;;18.70;54.98;98171.16;5044101;28;20158;-49
2022/06/12 04:23:07;;;;;;;6.10;4.45;;;18.30;67.60;;;18.54;55.87;98175.03;5043233;28;20063;-48
2022/06/12 04:25:53;;;;;;;7.72;4.90;;;18.10;68.20;;;18.53;55.10;98178.75;5041445;28;20057;-49
2022/06/12 04:28:41;;;;;;;5.97;4.00;;;18.10;68.80;;;18.52;55.31;98181.66;5043062;28;20051;-53
2022/06/12 04:31:18;;;;;;;4.72;3.90;;;18.00;69.00;;;18.50;55.36;98173.78;5043264;28;20241;-49
2022/06/12 04:33:55;;;;;;;5.18;4.10;;;18.00;68.60;;;18.50;55.55;98173.78;5043093;28;20051;-53
2022/06/12 04:36:24;;;;;;;5.13;3.80;;;18.10;68.10;;;18.52;55.61;98171.72;5043158;28;20176;-49
2022/06/12 04:38:53;;;;;;;6.10;3.72;;;18.10;68.10;;;18.55;55.63;98171.28;5042846;28;20356;-50
2022/06/12 04:41:25;;;;;;;6.25;5.20;;;18.20;68.10;;;18.59;55.88;98177.97;5043685;28;20239;-49
2022/06/12 04:43:53;;;;;;;6.25;4.55;;;18.30;68.40;;;18.62;56.12;98177.56;5042625;28;20235;-48
2022/06/12 04:46:23;;;;;;;5.55;4.50;;;18.30;68.50;;;18.64;56.05;98183.59;5043438;28;20063;-47
2022/06/12 04:48:56;;;;;;;4.65;4.10;;;18.30;68.60;;;18.65;56.06;98181.72;5041123;28;20051;-46
2022/06/12 04:51:25;;;;;;;4.82;3.90;;;18.30;68.60;;;18.66;55.77;98181.50;5042686;28;20049;-48
2022/06/12 04:53:53;;;;;;;5.40;4.32;;;18.40;67.90;;;18.73;55.72;98181.56;5042786;28;20046;-46
2022/06/12 04:56:27;;;;;;;6.43;4.13;;;18.50;67.30;;;18.69;55.97;98186.53;5042666;28;20053;-51
2022/06/12 04:58:55;;;;;;;5.30;4.45;;;18.50;67.80;;;18.76;55.55;98181.16;5042602;28;20049;-49
2022/06/12 05:01:24;;;;;;;4.50;3.70;;;18.50;67.10;;;18.80;55.45;98187.84;5042718;28;20045;-48
2022/06/12 05:03:56;;;;;;;5.65;4.13;;;18.50;67.10;;;18.77;55.51;98185.53;5042503;28;20259;-50
2022/06/12 05:06:26;;;;;;;5.20;3.92;;;18.50;67.00;;;18.78;55.36;98191.75;5042680;28;20344;-48
2022/06/12 05:08:54;;;;;;;7.05;4.13;;;18.50;67.10;;;18.77;55.48;98187.41;5042072;28;20045;-50
2022/06/12 05:11:23;;;;;;;6.22;4.47;;;18.50;67.20;;;18.71;55.79;98194.41;5042435;28;20052;-50
2022/06/12 05:13:51;;;;;;;5.43;4.38;;;18.40;67.70;;;18.67;55.69;98193.97;5041460;28;20045;-48
2022/06/12 05:16:25;;;;;;;6.07;4.20;;;18.40;67.60;;;18.74;55.74;98190.47;5042296;28;20046;-47
2022/06/12 05:18:52;;;;;;;;;;;18.50;67.80;;;18.64;56.69;98193.53;5042688;28;20052;-50
2022/06/12 05:21:20;;;;;;;5.28;4.32;;;18.50;68.10;;;18.78;55.87;98194.44;5041042;28;19923;-49
2022/06/12 05:23:48;;;;;;;4.85;4.45;;;18.50;67.50;;;18.84;55.95;98196.34;5042703;28;20053;-49
2022/06/12 05:26:18;;;;;;;4.57;4.15;;;18.60;67.50;;;18.92;55.98;98192.66;5042232;28;20045;-52
2022/06/12 05:28:46;;;;;;;9.23;4.78;;;18.80;67.00;;;19.00;55.88;98197.88;5040960;28;20056;-50
2022/06/12 05:31:16;;;;;;;5.63;4.35;;;18.90;67.10;;;19.05;55.58;98188.13;5041158;28;20235;-51
2022/06/12 05:33:46;;;;;;;5.65;4.25;;;18.90;66.50;;;19.16;55.42;98188.59;5041099;28;20063;-48
2022/06/12 05:36:22;;;;;;;5.72;4.10;;;19.10;66.20;;;19.21;55.44;98186.97;5042674;28;20071;-47
2022/06/12 05:38:51;;;;;;;6.32;4.28;;;19.10;66.00;;;19.31;55.15;98185.72;5042170;28;20060;-50
2022/06/12 05:41:19;;;;;;;8.18;4.45;;;19.30;65.60;;;19.41;55.16;98188.88;5042179;28;20050;-50
2022/06/12 05:43:47;;;;;;;5.40;4.07;;;19.40;65.20;;;19.48;55.15;98190.56;5042063;28;20048;-47
2022/06/12 05:46:16;;;;;;;6.05;4.00;;;19.50;65.20;;;19.56;55.07;98192.22;5042028;28;20049;-52
2022/06/12 05:48:45;;;;;;;6.22;3.95;;;19.60;65.00;;;19.62;55.07;98198.69;5041675;28;20042;-50
2022/06/12 05:51:16;;;;;;;5.32;4.22;;;19.60;64.80;;;19.59;54.69;98191.81;5042098;28;20055;-49
2022/06/12 05:53:44;;;;;;;4.10;3.70;;;19.60;64.30;;;19.61;54.93;98191.59;5042750;28;20053;-51
2022/06/12 05:56:22;;;;;;;4.38;3.97;;;19.60;64.90;;;19.66;54.17;98191.84;5041900;28;20044;-50
2022/06/12 05:58:50;;;;;;;5.47;3.63;;;19.70;63.60;;;19.72;54.05;98196.44;5041601;28;20243;-53
2022/06/12 06:01:20;;;;;;;7.22;4.55;;;19.80;63.40;;;19.82;53.81;98187.91;5044727;28;20382;-51
2022/06/12 06:03:49;;;;;;;4.10;3.58;;;19.80;63.70;;;19.85;53.63;98191.03;5045919;28;20055;-50
2022/06/12 06:06:25;;;;;;;4.80;3.20;;;19.80;62.30;;;19.83;52.66;98192.25;5045937;28;20056;-49
2022/06/12 06:08:59;;;;;;;8.57;4.00;;;19.90;60.80;;;19.74;53.11;98190.84;5045099;28;20115;-51
2022/06/12 06:11:27;;;;;;;6.22;3.30;;;19.70;61.40;;;19.74;53.05;98202.47;5045756;28;20046;-49
2022/06/12 06:13:55;;;;;;;6.57;4.38;;;19.70;61.50;;;19.76;53.24;98200.38;5046305;28;20063;-51
2022/06/12 06:16:23;;;;;;;4.85;3.65;;;19.80;61.60;;;19.86;52.91;98205.38;5045865;28;20046;-53
2022/06/12 06:18:53;;;;;;;4.95;3.70;;;19.80;61.50;;;19.81;53.28;98203.31;5044456;28;20243;-50
2022/06/12 06:21:21;;;;;;;4.55;3.97;;;19.80;61.30;;;19.81;52.72;98203.31;5044539;28;20276;-47
2022/06/12 06:23:49;;;;;;;6.38;3.65;;;19.90;60.90;;;19.82;52.81;98207.66;5045471;28;20045;-51
2022/06/12 06:26:18;;;;;;;4.70;3.88;;;19.90;61.20;;;19.97;52.62;98209.34;5045517;28;20385;-48
2022/06/12 06:28:49;;;;;;;3.92;3.38;;;20.00;61.00;;;19.96;52.79;98197.69;5045275;28;20047;-52
2022/06/12 06:31:18;;;;;;;4.00;3.60;;;20.00;60.70;;;20.03;52.30;98203.91;5045245;28;20056;-49
2022/06/12 06:33:46;;;;;;;4.70;3.22;;;20.10;60.50;;;20.14;51.61;98212.44;5044572;28;20220;-48
2022/06/12 06:36:16;;;;;;;4.25;3.17;;;20.20;59.70;;;20.15;51.76;98206.81;5045376;28;20054;-51
2022/06/12 06:38:45;;;;;;;4.57;3.42;;;20.20;59.50;;;20.11;51.91;98210.16;5044358;28;20370;-50
2022/06/12 06:41:14;;;;;;;7.03;3.88;;;20.20;59.70;;;20.19;51.41;98205.34;5045207;28;20045;-50
2022/06/12 06:46:28;;;;;;;7.47;4.18;;;20.40;59.30;;;20.38;51.56;98203.69;5045246;28;20041;-47
2022/06/12 06:48:57;;;;;;;3.83;3.47;;;20.50;59.10;;;20.43;50.99;98213.84;5043936;28;20042;-48
2022/06/12 06:51:24;;;;;;;4.90;3.22;;;20.50;58.50;;;20.51;50.45;98205.53;5044083;28;20331;-48
2022/06/12 06:53:52;;;;;;;4.75;3.80;;;20.60;58.00;;;20.54;50.56;98205.09;5044944;28;20060;-49
2022/06/12 06:56:21;;;;;;;5.00;3.67;;;20.70;57.50;;;20.58;49.84;98208.22;5045030;28;20243;-49
2022/06/12 06:58:49;;;;;;;6.95;4.03;;;20.70;57.10;;;20.62;49.77;98213.00;5044754;28;20056;-49
2022/06/12 07:01:17;;;;;;;5.57;3.88;;;20.70;57.10;;;20.68;50.37;98213.22;5045186;28;20065;-49
2022/06/12 07:03:45;;;;;;;4.32;3.40;;;20.80;57.50;;;20.75;50.46;98214.03;5044532;28;20049;-50
2022/06/12 07:06:15;;;;;;;4.53;3.85;;;20.80;57.70;;;20.79;51.00;98207.97;5044430;28;20251;-49
2022/06/12 07:08:54;;;;;;;5.00;3.67;;;20.90;58.40;;;20.78;50.94;98202.78;5044753;28;20046;-52
2022/06/12 07:11:24;;;;;;;5.47;4.07;;;20.90;58.50;;;20.84;51.21;98208.19;5044669;28;20056;-48
2022/06/12 07:13:53;;;;;;;5.30;3.38;;;21.00;58.60;;;20.85;50.89;98215.22;5044834;28;20057;-50
2022/06/12 07:16:25;;;;;;;5.35;3.75;;;21.00;58.50;;;20.89;50.97;98204.00;5044553;28;20060;-50
2022/06/12 07:18:53;;;;;;;5.60;3.65;;;21.00;58.70;;;20.91;51.62;98204.59;5044368;28;20049;-49
2022/06/12 07:21:22;;;;;;;5.40;3.78;;;21.00;59.00;;;20.97;50.90;98212.69;5044748;28;20059;-50
2022/06/12 07:23:50;;;;;;;4.80;3.35;;;21.10;59.30;;;21.02;51.37;98204.78;5044843;28;20057;-50
2022/06/12 07:26:27;;;;;;;4.07;3.67;;;21.20;58.30;;;21.07;50.76;98201.41;5044864;28;20060;-51
2022/06/12 07:28:56;;;;;;;5.93;3.60;;;21.20;58.30;;;21.12;50.70;98204.31;5043149;28;20051;-48
2022/06/12 07:31:24;;;;;;;4.07;3.67;;;21.20;58.30;;;21.19;50.75;98206.97;5044365;28;20041;-47
2022/06/12 07:33:52;;;;;;;4.72;3.70;;;21.30;58.20;;;21.26;50.68;98210.47;5044039;28;20045;-48
2022/06/12 07:36:27;;;;;;;5.38;4.22;;;21.40;58.30;;;21.31;51.27;98207.97;5044351;28;20276;-49
2022/06/12 07:38:55;;;;;;;4.32;3.70;;;21.50;58.40;;;21.35;50.93;98200.25;5043806;28;20358;-54
2022/06/12 07:41:44;;;;;;;4.88;3.50;;;21.60;58.10;;;21.42;51.23;98209.16;5042849;28;20357;-51
2022/06/12 07:44:13;;;;;;;5.40;3.80;;;21.60;58.40;;;21.50;50.41;98203.53;5043828;28;20079;-50
2022/06/12 07:46:42;;;;;;;4.22;3.38;;;21.70;57.90;;;21.57;50.72;98201.59;5043914;28;20045;-50
2022/06/12 07:49:09;;;;;;;9.38;4.30;;;21.70;57.60;;;21.63;50.63;98192.59;5043549;28;20049;-52
2022/06/12 07:51:37;;;;;;;5.40;3.85;;;21.80;57.70;;;21.68;50.62;98191.94;5044113;28;20336;-48
2022/06/12 07:54:05;;;;;;;3.92;3.50;;;21.90;57.90;;;21.77;50.29;98192.47;5043904;28;20352;-48
2022/06/12 07:56:33;;;;;;;4.05;3.50;;;21.90;57.60;;;21.86;50.20;98187.63;5044053;28;20056;-49
2022/06/12 07:59:01;;;;;;;5.90;3.55;;;22.10;57.20;;;21.91;49.57;98185.09;5043763;28;20057;-52
2022/06/12 08:01:30;;;;;;;5.15;4.00;;;22.10;56.70;;;21.93;49.29;98186.53;5043869;28;20049;-53
2022/06/12 08:03:58;;;;;;;4.63;3.40;;;22.30;56.20;;;21.99;48.37;98192.97;5043509;28;20239;-50
2022/06/12 08:06:27;;;;;;;4.40;2.88;;;22.20;54.90;;;22.00;47.67;98186.47;5043782;28;20360;-48
2022/06/12 08:08:57;;;;;;;5.80;3.75;;;22.30;54.20;;;22.06;48.11;98187.47;5043451;28;20362;-53
2022/06/12 08:11:30;;;;;;;3.55;3.25;;;22.30;54.30;;;22.12;47.92;98190.13;5042575;28;20052;-48
2022/06/12 08:13:58;;;;;;;4.18;3.15;;;22.30;54.50;;;22.14;47.63;98188.03;5043829;28;20061;-49
2022/06/12 08:16:27;;;;;;;3.85;3.15;;;22.40;53.70;;;22.19;48.09;98182.75;5043518;28;20071;-48
2022/06/12 08:18:55;;;;;;;4.53;3.63;;;22.40;54.60;;;22.24;48.72;98190.22;5041691;28;20055;-50
2022/06/12 08:21:23;;;;;;;5.15;3.75;;;22.40;55.00;;;22.27;48.92;98183.56;5043532;28;20051;-48
2022/06/12 08:23:58;;;;;;;4.85;3.45;;;22.50;55.40;;;22.30;48.71;98191.25;5042298;28;20049;-51
2022/06/12 08:26:31;;;;;;;4.97;3.35;;;22.50;54.70;;;22.30;47.85;98177.69;5043522;28;20045;-51
2022/06/12 08:29:06;;;;;;;6.30;3.72;;;22.60;54.30;;;22.36;47.70;98182.22;5043069;28;20052;-50
2022/06/12 08:31:48;;;;;;;5.82;3.10;;;22.70;53.90;;;22.46;48.12;98187.94;5042390;28;20049;-50
2022/06/12 08:34:27;;;;;;;4.35;3.78;;;22.70;54.50;;;22.55;48.71;98172.22;5043941;28;20057;-51
2022/06/12 08:37:01;;;;;;;3.70;3.40;;;22.80;55.40;;;22.65;48.55;98179.84;5043412;28;20056;-50
2022/06/12 08:39:29;;;;;;;3.50;3.20;;;22.80;55.30;;;22.70;47.91;98169.09;5041764;28;20048;-48
2022/06/12 08:42:27;;;;;;;4.75;3.60;;;22.90;54.10;;;22.81;47.22;98169.19;5043111;28;20049;-49
2022/06/12 08:45:18;;;;;;;8.50;3.80;;;23.10;52.90;;;22.90;47.45;98168.88;5079411;28;20390;-53
2022/06/12 08:48:13;;;;;;;7.25;3.70;;;23.10;53.90;;;22.99;47.38;98167.50;5058946;28;20063;-53
2022/06/12 08:50:48;;;;;;;4.60;3.10;;;23.20;53.20;;;23.05;46.96;98166.63;5059533;28;20051;-50
2022/06/12 08:53:38;;;;;;;3.47;3.17;;;23.30;53.30;;;23.11;47.14;98171.16;5059485;28;20056;-51
2022/06/12 08:56:37;;;;;;;3.30;3.00;;;23.30;53.30;;;23.11;46.53;98164.88;5059989;28;20057;-51
2022/06/12 08:59:34;;;;;;;6.70;3.35;;;23.30;52.40;;;23.19;47.25;98161.84;5056457;28;20083;-49
2022/06/12 09:02:06;;;;;;;5.70;3.28;;;23.40;53.60;;;23.25;47.30;98160.09;5059362;28;20053;-53
2022/06/12 09:04:34;;;;;;;5.78;3.83;;;23.40;53.80;;;23.29;47.40;98153.16;5058910;28;20052;-49
2022/06/12 09:07:24;;;;;;;3.25;2.95;;;23.50;54.00;;;23.34;48.05;98156.84;5058306;28;20049;-51
2022/06/12 09:10:12;;;;;;;5.35;2.92;;;23.50;54.50;;;23.44;47.07;98156.28;5073794;28;20337;-50
2022/06/12 09:13:01;;;;;;;4.90;3.20;;;23.70;53.30;;;23.49;45.69;98150.13;5073135;28;20055;-50
2022/06/12 09:15:47;;;;;;;4.35;3.00;;;23.70;51.60;;;23.54;45.53;98147.56;5058778;28;20049;-50
2022/06/12 09:18:40;;;;;;;6.15;3.70;;;23.70;52.20;;;23.54;45.32;98145.66;5058710;28;20060;-51
2022/06/12 09:21:23;;;;;;;3.38;3.08;;;23.80;50.20;;;23.59;46.03;98153.94;5058695;28;20045;-51
2022/06/12 09:24:17;;;;;;;4.35;3.10;;;23.80;52.10;;;23.63;45.94;98150.75;5072988;28;20041;-53
2022/06/12 09:27:02;;;;;;;3.13;2.83;;;23.80;52.10;;;23.70;45.76;98148.78;5058655;28;20045;-52
2022/06/12 09:29:48;;;;;;;3.90;2.80;;;23.90;51.60;;;23.76;45.38;98145.09;5058412;28;20045;-49
2022/06/12 09:33:07;;;;;;;5.60;3.33;;;23.90;51.00;;;23.82;44.92;98151.53;5058791;28;20067;-53
2022/06/12 09:36:12;;;;;;;5.07;2.80;;;24.00;49.60;;;23.87;44.20;98151.66;5058698;28;20045;-53
2022/06/12 09:38:40;;;;;;;4.57;2.95;;;24.10;49.70;;;23.92;44.38;98146.34;5058426;28;20247;-48
2022/06/12 09:41:18;;;;;;;3.92;2.65;;;24.10;50.20;;;23.92;43.78;98147.19;5058577;28;20253;-52
2022/06/12 09:44:13;;;;;;;3.38;2.45;;;24.10;48.90;;;24.00;43.03;98139.72;5058187;28;20064;-51
2022/06/12 09:47:06;;;;;;;3.60;2.95;;;24.20;47.40;;;24.07;43.43;98133.09;5058145;28;20049;-51
2022/06/12 09:50:07;;;;;;;4.22;2.63;;;24.30;48.30;;;24.14;42.96;98133.00;5058390;28;20060;-50
2022/06/12 09:53:22;;;;;;;2.70;2.50;;;24.30;47.90;;;24.18;42.78;98131.47;5058500;28;20365;-49
2022/06/12 09:56:14;;;;;;;3.40;2.95;;;24.40;47.10;;;24.23;42.36;98130.72;5061194;28;20057;-51
2022/06/12 09:59:10;;;;;;;3.30;2.60;;;24.40;46.80;;;24.29;41.66;98121.63;5044611;28;20530;-52
2022/06/12 10:01:43;;;;;;;4.18;2.88;;;24.50;46.70;;;24.34;41.56;98124.47;5044857;28;20049;-50
2022/06/12 10:04:19;;;;;;;3.10;2.80;;;24.60;46.10;;;24.40;41.37;98120.78;5059680;28;20045;-49
2022/06/12 10:07:03;;;;;;;3.60;2.65;;;24.70;47.20;;;24.48;40.72;98123.13;5059580;28;20049;-50
2022/06/12 10:09:37;;;;;;;3.55;2.92;;;24.80;46.10;;;24.53;41.34;98117.00;5044482;28;20041;-51
2022/06/12 10:12:32;;;;;;;4.72;2.80;;;24.90;45.90;;;24.56;40.75;98111.94;5059600;28;20045;-53
2022/06/12 10:15:10;;;;;;;4.22;2.92;;;24.90;44.40;;;24.61;41.18;98102.19;5058508;28;20057;-49
2022/06/12 10:18:06;;;;;;;3.58;3.08;;;25.00;45.50;;;24.61;40.55;98108.47;5058458;28;20064;-53
2022/06/12 10:20:46;;;;;;;5.95;2.80;;;25.00;44.50;;;24.66;39.45;98110.47;5041769;28;20360;-51
2022/06/12 10:23:14;;;;;;;5.93;3.15;;;25.10;43.90;;;24.74;40.55;98105.47;5059708;28;20064;-53
2022/06/12 10:25:51;;;;;;;3.33;3.03;;;25.10;44.60;;;24.77;40.56;98094.09;5044098;28;20260;-52
2022/06/12 10:28:32;;;;;;;6.82;3.65;;;25.10;44.50;;;24.84;40.56;98087.69;5059181;28;20056;-53
2022/06/12 10:31:09;;;;;;;4.20;2.70;;;25.20;44.70;;;24.92;40.58;98095.47;5044688;28;20072;-49
2022/06/12 10:33:46;;;;;;;4.35;2.80;;;25.30;44.70;;;24.99;40.56;98092.59;5044244;28;20045;-51
2022/06/12 10:36:34;;;;;;;4.30;3.00;;;25.30;44.30;;;25.02;39.78;98094.84;5044191;28;20251;-50
2022/06/12 10:39:17;;;;;;;3.35;3.00;;;25.50;42.50;;;25.04;38.71;98092.69;5043864;28;20053;-51
2022/06/12 10:42:02;;;;;;;3.13;2.90;;;25.60;41.60;;;25.17;39.33;98086.94;5044161;28;20046;-49
2022/06/12 10:44:35;;;;;;;3.33;2.90;;;25.70;42.10;;;25.19;38.84;98087.53;5043694;28;20369;-52
2022/06/12 10:47:24;;;;;;;2.97;2.67;;;25.70;41.40;;;25.23;38.36;98077.81;5043860;28;20045;-49
2022/06/12 10:50:26;;;;;;;3.90;3.13;;;25.80;40.00;;;25.27;38.39;98080.88;5043906;28;20045;-51
2022/06/12 10:53:09;;;;;;;3.33;2.60;;;25.80;40.60;;;25.28;38.90;98074.34;5043933;28;20057;-50
2022/06/12 10:56:18;;;;;;;5.25;2.90;;;25.70;42.20;;;25.16;38.04;98066.22;5043552;28;20060;-49
2022/06/12 10:59:02;;;;;;;4.07;3.35;;;25.70;41.10;;;25.30;38.76;98064.88;5058036;28;20053;-50
2022/06/12 11:02:13;;;;;;;3.95;2.78;;;25.70;42.50;;;25.39;38.71;98068.00;5043907;28;20251;-53
2022/06/12 11:05:20;;;;;;;2.85;2.60;;;25.90;41.50;;;25.47;38.68;98069.50;5033522;28;20057;-51
2022/06/12 11:08:08;;;;;;;4.32;3.28;;;26.00;41.80;;;25.46;37.48;98063.22;5042420;28;20046;-53
2022/06/12 11:10:50;;;;;;;4.80;3.33;;;26.00;40.60;;;25.51;38.23;98059.75;5057782;28;20041;-49
2022/06/12 11:13:39;;;;;;;4.47;3.25;;;26.00;41.40;;;25.56;38.87;98056.28;5043541;28;20045;-51
2022/06/12 11:16:26;;;;;;;3.22;2.97;;;26.10;42.20;;;25.62;38.48;98047.94;5056218;28;20056;-52
2022/06/12 11:19:21;;;;;;;4.28;3.60;;;26.10;42.10;;;25.66;38.22;98046.38;5057700;28;20362;-51
2022/06/12 11:22:15;;;;;;;9.05;3.03;;;26.20;40.90;;;25.79;37.77;98047.94;5043479;28;20251;-49